Terminal Aerodrome Forecast
Issued by NWS

Home | Current Version | Previous Version | Graphics & Text | Print | Product List | Glossary On
Versions: 1 2 3 4 5 6 7 8 9 10 11 12 13 14 15 16 17 18 19 20 21 22 23 24 25 26
194
FTUS43 KLOT 251125
TAFORD
TAF
KORD 251125Z 2512/2618 35010KT P6SM SCT008 OVC015
      TEMPO 2512/2515 BKN008
     FM251500 35012KT P6SM BKN020
     FM252100 02010KT P6SM SCT040
     FM260200 VRB03KT P6SM FEW040 SCT250
     FM261300 11006KT P6SM BKN250=

USA.gov is the U.S. government's official web portal to all federal, state and local government web resources and services.